sensor_id;sensor_type;location;lat;lon;timestamp;P1;durP1;ratioP1;P2;durP2;ratioP2
38332;SDS011;25748;46.670;14.272;2023-03-19T00:00:19;8.95;;;3.78;;
38332;SDS011;25748;46.670;14.272;2023-03-19T00:02:45;10.23;;;4.03;;
38332;SDS011;25748;46.670;14.272;2023-03-19T00:05:15;9.13;;;4.22;;
38332;SDS011;25748;46.670;14.272;2023-03-19T00:07:42;7.55;;;3.47;;
38332;SDS011;25748;46.670;14.272;2023-03-19T00:10:07;6.50;;;3.92;;
38332;SDS011;25748;46.670;14.272;2023-03-19T00:12:33;9.10;;;3.72;;
38332;SDS011;25748;46.670;14.272;2023-03-19T00:14:59;7.80;;;3.70;;
38332;SDS011;25748;46.670;14.272;2023-03-19T00:17:25;8.65;;;4.53;;
38332;SDS011;25748;46.670;14.272;2023-03-19T00:19:50;11.30;;;4.32;;
38332;SDS011;25748;46.670;14.272;2023-03-19T00:22:16;11.23;;;4.22;;
38332;SDS011;25748;46.670;14.272;2023-03-19T00:24:42;10.50;;;3.85;;
38332;SDS011;25748;46.670;14.272;2023-03-19T00:27:08;7.43;;;3.50;;
38332;SDS011;25748;46.670;14.272;2023-03-19T00:29:34;7.18;;;4.40;;
38332;SDS011;25748;46.670;14.272;2023-03-19T00:32:00;11.57;;;4.43;;
38332;SDS011;25748;46.670;14.272;2023-03-19T00:34:26;7.25;;;3.90;;
38332;SDS011;25748;46.670;14.272;2023-03-19T00:36:52;7.22;;;3.75;;
38332;SDS011;25748;46.670;14.272;2023-03-19T00:39:18;10.60;;;3.85;;
38332;SDS011;25748;46.670;14.272;2023-03-19T00:41:45;7.22;;;3.50;;
38332;SDS011;25748;46.670;14.272;2023-03-19T00:44:14;6.07;;;3.45;;
38332;SDS011;25748;46.670;14.272;2023-03-19T00:46:42;7.88;;;3.35;;
38332;SDS011;25748;46.670;14.272;2023-03-19T00:49:08;8.27;;;3.08;;
38332;SDS011;25748;46.670;14.272;2023-03-19T00:51:33;8.20;;;3.63;;
38332;SDS011;25748;46.670;14.272;2023-03-19T00:53:59;12.88;;;3.50;;
38332;SDS011;25748;46.670;14.272;2023-03-19T00:56:25;7.50;;;3.25;;
38332;SDS011;25748;46.670;14.272;2023-03-19T00:58:51;6.07;;;3.30;;
38332;SDS011;25748;46.670;14.272;2023-03-19T01:01:16;6.53;;;3.78;;
38332;SDS011;25748;46.670;14.272;2023-03-19T01:03:43;7.75;;;4.05;;
38332;SDS011;25748;46.670;14.272;2023-03-19T01:06:10;11.52;;;4.13;;
38332;SDS011;25748;46.670;14.272;2023-03-19T01:08:36;7.00;;;4.05;;
38332;SDS011;25748;46.670;14.272;2023-03-19T01:11:09;11.13;;;4.30;;
38332;SDS011;25748;46.670;14.272;2023-03-19T01:13:38;9.02;;;4.07;;
38332;SDS011;25748;46.670;14.272;2023-03-19T01:16:04;11.32;;;3.70;;
38332;SDS011;25748;46.670;14.272;2023-03-19T01:18:30;9.07;;;3.55;;
38332;SDS011;25748;46.670;14.272;2023-03-19T01:20:56;20.42;;;3.95;;
38332;SDS011;25748;46.670;14.272;2023-03-19T01:23:22;9.23;;;3.45;;
38332;SDS011;25748;46.670;14.272;2023-03-19T01:25:48;13.07;;;4.28;;
38332;SDS011;25748;46.670;14.272;2023-03-19T01:28:14;10.05;;;4.28;;
38332;SDS011;25748;46.670;14.272;2023-03-19T01:30:39;8.02;;;3.22;;
38332;SDS011;25748;46.670;14.272;2023-03-19T01:33:05;8.68;;;3.50;;
38332;SDS011;25748;46.670;14.272;2023-03-19T01:35:32;7.43;;;3.90;;
38332;SDS011;25748;46.670;14.272;2023-03-19T01:37:57;6.40;;;3.70;;
38332;SDS011;25748;46.670;14.272;2023-03-19T01:40:23;10.48;;;4.15;;
38332;SDS011;25748;46.670;14.272;2023-03-19T01:45:36;9.80;;;3.55;;
38332;SDS011;25748;46.670;14.272;2023-03-19T01:48:03;8.05;;;3.83;;
38332;SDS011;25748;46.670;14.272;2023-03-19T01:50:36;9.23;;;3.65;;
38332;SDS011;25748;46.670;14.272;2023-03-19T01:53:08;7.88;;;3.72;;
38332;SDS011;25748;46.670;14.272;2023-03-19T01:55:36;7.55;;;4.03;;
38332;SDS011;25748;46.670;14.272;2023-03-19T01:58:02;7.50;;;3.75;;
38332;SDS011;25748;46.670;14.272;2023-03-19T02:00:31;7.63;;;3.95;;
38332;SDS011;25748;46.670;14.272;2023-03-19T02:03:03;6.55;;;3.78;;
38332;SDS011;25748;46.670;14.272;2023-03-19T02:05:29;8.30;;;3.60;;
38332;SDS011;25748;46.670;14.272;2023-03-19T02:07:57;7.47;;;4.45;;
38332;SDS011;25748;46.670;14.272;2023-03-19T02:10:25;9.13;;;3.67;;
38332;SDS011;25748;46.670;14.272;2023-03-19T02:12:52;8.05;;;3.60;;
38332;SDS011;25748;46.670;14.272;2023-03-19T02:15:18;8.85;;;4.28;;
38332;SDS011;25748;46.670;14.272;2023-03-19T02:17:44;6.93;;;3.38;;
38332;SDS011;25748;46.670;14.272;2023-03-19T02:20:18;6.38;;;3.72;;
38332;SDS011;25748;46.670;14.272;2023-03-19T02:22:55;8.90;;;3.35;;
38332;SDS011;25748;46.670;14.272;2023-03-19T02:28:13;8.82;;;4.60;;
38332;SDS011;25748;46.670;14.272;2023-03-19T02:30:41;8.35;;;3.83;;
38332;SDS011;25748;46.670;14.272;2023-03-19T02:33:12;8.77;;;3.97;;
38332;SDS011;25748;46.670;14.272;2023-03-19T02:35:40;10.20;;;5.63;;
38332;SDS011;25748;46.670;14.272;2023-03-19T02:38:07;9.23;;;4.30;;
38332;SDS011;25748;46.670;14.272;2023-03-19T02:40:34;8.60;;;4.47;;
38332;SDS011;25748;46.670;14.272;2023-03-19T02:43:03;6.60;;;3.83;;
38332;SDS011;25748;46.670;14.272;2023-03-19T02:45:29;12.77;;;4.72;;
38332;SDS011;25748;46.670;14.272;2023-03-19T02:47:57;9.80;;;4.20;;
38332;SDS011;25748;46.670;14.272;2023-03-19T02:50:24;8.05;;;3.58;;
38332;SDS011;25748;46.670;14.272;2023-03-19T02:52:50;7.22;;;3.65;;
38332;SDS011;25748;46.670;14.272;2023-03-19T02:55:16;7.80;;;3.90;;
38332;SDS011;25748;46.670;14.272;2023-03-19T02:57:42;6.55;;;3.80;;
38332;SDS011;25748;46.670;14.272;2023-03-19T03:00:09;8.52;;;4.32;;
38332;SDS011;25748;46.670;14.272;2023-03-19T03:02:36;9.30;;;3.63;;
38332;SDS011;25748;46.670;14.272;2023-03-19T03:05:03;13.63;;;3.97;;
38332;SDS011;25748;46.670;14.272;2023-03-19T03:07:30;10.38;;;4.10;;
38332;SDS011;25748;46.670;14.272;2023-03-19T03:09:56;11.80;;;3.67;;
38332;SDS011;25748;46.670;14.272;2023-03-19T03:12:22;11.40;;;3.50;;
38332;SDS011;25748;46.670;14.272;2023-03-19T03:14:48;7.05;;;3.85;;
38332;SDS011;25748;46.670;14.272;2023-03-19T03:17:14;7.63;;;3.75;;
38332;SDS011;25748;46.670;14.272;2023-03-19T03:19:39;8.68;;;4.43;;
38332;SDS011;25748;46.670;14.272;2023-03-19T03:22:06;10.48;;;3.75;;
38332;SDS011;25748;46.670;14.272;2023-03-19T03:24:32;10.27;;;3.97;;
38332;SDS011;25748;46.670;14.272;2023-03-19T03:26:58;11.27;;;3.97;;
38332;SDS011;25748;46.670;14.272;2023-03-19T03:29:24;12.18;;;4.60;;
38332;SDS011;25748;46.670;14.272;2023-03-19T03:31:50;8.82;;;4.30;;
38332;SDS011;25748;46.670;14.272;2023-03-19T03:34:15;6.97;;;3.63;;
38332;SDS011;25748;46.670;14.272;2023-03-19T03:36:41;4.97;;;2.75;;
38332;SDS011;25748;46.670;14.272;2023-03-19T03:39:07;8.30;;;3.53;;
38332;SDS011;25748;46.670;14.272;2023-03-19T03:41:33;10.98;;;4.18;;
38332;SDS011;25748;46.670;14.272;2023-03-19T03:43:58;8.57;;;4.13;;
38332;SDS011;25748;46.670;14.272;2023-03-19T03:46:24;9.73;;;4.50;;
38332;SDS011;25748;46.670;14.272;2023-03-19T03:48:50;14.43;;;4.50;;
38332;SDS011;25748;46.670;14.272;2023-03-19T03:51:16;8.50;;;3.60;;
38332;SDS011;25748;46.670;14.272;2023-03-19T03:53:42;6.10;;;3.78;;
38332;SDS011;25748;46.670;14.272;2023-03-19T03:56:08;9.93;;;4.35;;
38332;SDS011;25748;46.670;14.272;2023-03-19T03:58:34;13.07;;;4.47;;
38332;SDS011;25748;46.670;14.272;2023-03-19T04:01:00;8.48;;;3.20;;
38332;SDS011;25748;46.670;14.272;2023-03-19T04:03:26;11.38;;;4.25;;
38332;SDS011;25748;46.670;14.272;2023-03-19T04:05:52;8.43;;;3.97;;
38332;SDS011;25748;46.670;14.272;2023-03-19T04:08:17;12.57;;;4.15;;
38332;SDS011;25748;46.670;14.272;2023-03-19T04:10:43;9.73;;;3.72;;
38332;SDS011;25748;46.670;14.272;2023-03-19T04:13:10;8.32;;;4.40;;
38332;SDS011;25748;46.670;14.272;2023-03-19T04:15:35;9.07;;;4.18;;
38332;SDS011;25748;46.670;14.272;2023-03-19T04:18:01;10.13;;;4.03;;
38332;SDS011;25748;46.670;14.272;2023-03-19T04:20:27;5.22;;;3.33;;
38332;SDS011;25748;46.670;14.272;2023-03-19T04:22:54;8.55;;;3.40;;
38332;SDS011;25748;46.670;14.272;2023-03-19T04:25:20;7.53;;;3.38;;
38332;SDS011;25748;46.670;14.272;2023-03-19T04:27:46;14.02;;;3.83;;
38332;SDS011;25748;46.670;14.272;2023-03-19T04:30:11;8.48;;;4.18;;
38332;SDS011;25748;46.670;14.272;2023-03-19T04:32:38;8.77;;;3.75;;
38332;SDS011;25748;46.670;14.272;2023-03-19T04:35:04;12.30;;;4.43;;
38332;SDS011;25748;46.670;14.272;2023-03-19T04:37:30;10.02;;;3.47;;
38332;SDS011;25748;46.670;14.272;2023-03-19T04:39:56;7.18;;;3.35;;
38332;SDS011;25748;46.670;14.272;2023-03-19T04:42:22;6.57;;;3.53;;
38332;SDS011;25748;46.670;14.272;2023-03-19T04:44:48;11.32;;;3.72;;
38332;SDS011;25748;46.670;14.272;2023-03-19T04:47:14;5.20;;;3.20;;
38332;SDS011;25748;46.670;14.272;2023-03-19T04:49:40;7.45;;;3.20;;
38332;SDS011;25748;46.670;14.272;2023-03-19T04:52:06;10.70;;;4.18;;
38332;SDS011;25748;46.670;14.272;2023-03-19T04:54:32;6.70;;;3.58;;
38332;SDS011;25748;46.670;14.272;2023-03-19T04:56:58;8.05;;;3.65;;
38332;SDS011;25748;46.670;14.272;2023-03-19T04:59:23;5.10;;;3.15;;
38332;SDS011;25748;46.670;14.272;2023-03-19T05:01:49;9.52;;;4.07;;
38332;SDS011;25748;46.670;14.272;2023-03-19T05:04:15;7.35;;;3.75;;
38332;SDS011;25748;46.670;14.272;2023-03-19T05:06:41;5.82;;;3.03;;
38332;SDS011;25748;46.670;14.272;2023-03-19T05:09:07;4.68;;;3.17;;
38332;SDS011;25748;46.670;14.272;2023-03-19T05:11:33;8.13;;;3.35;;
38332;SDS011;25748;46.670;14.272;2023-03-19T05:13:59;6.03;;;3.50;;
38332;SDS011;25748;46.670;14.272;2023-03-19T05:16:25;11.27;;;4.00;;
38332;SDS011;25748;46.670;14.272;2023-03-19T05:18:51;6.72;;;3.22;;
38332;SDS011;25748;46.670;14.272;2023-03-19T05:21:17;6.82;;;3.47;;
38332;SDS011;25748;46.670;14.272;2023-03-19T05:23:43;10.32;;;4.00;;
38332;SDS011;25748;46.670;14.272;2023-03-19T05:26:09;8.68;;;4.18;;
38332;SDS011;25748;46.670;14.272;2023-03-19T05:28:35;9.20;;;4.00;;
38332;SDS011;25748;46.670;14.272;2023-03-19T05:31:02;8.35;;;4.10;;
38332;SDS011;25748;46.670;14.272;2023-03-19T05:33:28;8.30;;;3.97;;
38332;SDS011;25748;46.670;14.272;2023-03-19T05:35:54;8.50;;;3.70;;
38332;SDS011;25748;46.670;14.272;2023-03-19T05:38:20;6.68;;;3.78;;
38332;SDS011;25748;46.670;14.272;2023-03-19T05:40:46;8.07;;;3.75;;
38332;SDS011;25748;46.670;14.272;2023-03-19T05:43:11;10.00;;;3.83;;
38332;SDS011;25748;46.670;14.272;2023-03-19T05:45:37;10.00;;;4.47;;
38332;SDS011;25748;46.670;14.272;2023-03-19T05:48:03;8.93;;;4.75;;
38332;SDS011;25748;46.670;14.272;2023-03-19T05:50:29;8.93;;;4.47;;
38332;SDS011;25748;46.670;14.272;2023-03-19T05:52:56;6.30;;;3.92;;
38332;SDS011;25748;46.670;14.272;2023-03-19T05:55:21;12.77;;;4.68;;
38332;SDS011;25748;46.670;14.272;2023-03-19T05:57:47;6.28;;;3.55;;
38332;SDS011;25748;46.670;14.272;2023-03-19T06:00:13;8.48;;;4.60;;
38332;SDS011;25748;46.670;14.272;2023-03-19T06:02:40;16.60;;;4.47;;
38332;SDS011;25748;46.670;14.272;2023-03-19T06:05:07;12.10;;;5.00;;
38332;SDS011;25748;46.670;14.272;2023-03-19T06:07:33;7.65;;;3.45;;
38332;SDS011;25748;46.670;14.272;2023-03-19T06:09:58;6.80;;;3.70;;
38332;SDS011;25748;46.670;14.272;2023-03-19T06:12:24;8.70;;;4.28;;
38332;SDS011;25748;46.670;14.272;2023-03-19T06:14:50;9.57;;;4.00;;
38332;SDS011;25748;46.670;14.272;2023-03-19T06:17:16;8.43;;;4.00;;
38332;SDS011;25748;46.670;14.272;2023-03-19T06:19:42;10.75;;;4.03;;
38332;SDS011;25748;46.670;14.272;2023-03-19T06:22:07;11.13;;;4.15;;
38332;SDS011;25748;46.670;14.272;2023-03-19T06:24:33;9.95;;;4.32;;
38332;SDS011;25748;46.670;14.272;2023-03-19T06:26:59;8.18;;;3.90;;
38332;SDS011;25748;46.670;14.272;2023-03-19T06:29:25;9.23;;;4.55;;
38332;SDS011;25748;46.670;14.272;2023-03-19T06:31:51;17.75;;;4.35;;
38332;SDS011;25748;46.670;14.272;2023-03-19T06:34:17;8.75;;;4.25;;
38332;SDS011;25748;46.670;14.272;2023-03-19T06:36:42;9.70;;;3.83;;
38332;SDS011;25748;46.670;14.272;2023-03-19T06:39:08;9.10;;;4.15;;
38332;SDS011;25748;46.670;14.272;2023-03-19T06:41:34;9.88;;;4.60;;
38332;SDS011;25748;46.670;14.272;2023-03-19T06:44:01;11.20;;;4.68;;
38332;SDS011;25748;46.670;14.272;2023-03-19T06:46:27;8.65;;;4.47;;
38332;SDS011;25748;46.670;14.272;2023-03-19T06:48:52;9.13;;;4.13;;
38332;SDS011;25748;46.670;14.272;2023-03-19T06:51:19;10.18;;;5.63;;
38332;SDS011;25748;46.670;14.272;2023-03-19T06:53:45;7.13;;;3.90;;
38332;SDS011;25748;46.670;14.272;2023-03-19T06:56:10;10.43;;;4.30;;
38332;SDS011;25748;46.670;14.272;2023-03-19T06:58:36;11.00;;;4.32;;
38332;SDS011;25748;46.670;14.272;2023-03-19T07:01:02;10.65;;;4.47;;
38332;SDS011;25748;46.670;14.272;2023-03-19T07:03:28;11.57;;;4.78;;
38332;SDS011;25748;46.670;14.272;2023-03-19T07:05:54;10.10;;;4.15;;
38332;SDS011;25748;46.670;14.272;2023-03-19T07:08:23;9.35;;;4.43;;
38332;SDS011;25748;46.670;14.272;2023-03-19T07:10:53;11.57;;;4.50;;
38332;SDS011;25748;46.670;14.272;2023-03-19T07:13:27;7.18;;;4.63;;
38332;SDS011;25748;46.670;14.272;2023-03-19T07:15:53;13.82;;;4.78;;
38332;SDS011;25748;46.670;14.272;2023-03-19T07:18:19;9.60;;;4.85;;
38332;SDS011;25748;46.670;14.272;2023-03-19T07:20:45;14.30;;;4.82;;
38332;SDS011;25748;46.670;14.272;2023-03-19T07:23:11;10.77;;;4.50;;
38332;SDS011;25748;46.670;14.272;2023-03-19T07:25:36;8.93;;;4.32;;
38332;SDS011;25748;46.670;14.272;2023-03-19T07:28:02;9.80;;;4.15;;
38332;SDS011;25748;46.670;14.272;2023-03-19T07:30:28;11.55;;;5.03;;
38332;SDS011;25748;46.670;14.272;2023-03-19T07:32:53;9.77;;;3.67;;
38332;SDS011;25748;46.670;14.272;2023-03-19T07:35:19;9.38;;;3.63;;
38332;SDS011;25748;46.670;14.272;2023-03-19T07:37:46;13.70;;;5.70;;
38332;SDS011;25748;46.670;14.272;2023-03-19T07:40:12;9.85;;;4.72;;
38332;SDS011;25748;46.670;14.272;2023-03-19T07:42:37;9.82;;;4.68;;
38332;SDS011;25748;46.670;14.272;2023-03-19T07:45:03;9.18;;;4.53;;
38332;SDS011;25748;46.670;14.272;2023-03-19T07:47:30;12.40;;;5.00;;
38332;SDS011;25748;46.670;14.272;2023-03-19T07:49:56;15.77;;;5.18;;
38332;SDS011;25748;46.670;14.272;2023-03-19T07:52:25;8.15;;;3.85;;
38332;SDS011;25748;46.670;14.272;2023-03-19T07:54:51;12.60;;;5.63;;
38332;SDS011;25748;46.670;14.272;2023-03-19T07:57:17;18.27;;;5.38;;
38332;SDS011;25748;46.670;14.272;2023-03-19T07:59:43;9.43;;;4.63;;
38332;SDS011;25748;46.670;14.272;2023-03-19T08:02:10;10.23;;;3.85;;
38332;SDS011;25748;46.670;14.272;2023-03-19T08:04:36;9.40;;;3.92;;
38332;SDS011;25748;46.670;14.272;2023-03-19T08:07:05;14.02;;;4.20;;
38332;SDS011;25748;46.670;14.272;2023-03-19T08:09:34;11.27;;;4.03;;
38332;SDS011;25748;46.670;14.272;2023-03-19T08:12:05;9.50;;;3.72;;
38332;SDS011;25748;46.670;14.272;2023-03-19T08:14:32;7.88;;;3.42;;
38332;SDS011;25748;46.670;14.272;2023-03-19T08:16:58;10.40;;;4.45;;
38332;SDS011;25748;46.670;14.272;2023-03-19T08:19:24;7.07;;;3.17;;
38332;SDS011;25748;46.670;14.272;2023-03-19T08:21:50;10.57;;;4.10;;
38332;SDS011;25748;46.670;14.272;2023-03-19T08:24:15;9.60;;;3.58;;
38332;SDS011;25748;46.670;14.272;2023-03-19T08:26:42;8.02;;;3.10;;
38332;SDS011;25748;46.670;14.272;2023-03-19T08:29:08;7.90;;;3.63;;
38332;SDS011;25748;46.670;14.272;2023-03-19T08:31:34;6.35;;;3.47;;
38332;SDS011;25748;46.670;14.272;2023-03-19T08:33:59;9.20;;;3.33;;
38332;SDS011;25748;46.670;14.272;2023-03-19T08:36:27;6.10;;;2.83;;
38332;SDS011;25748;46.670;14.272;2023-03-19T08:38:53;7.10;;;3.25;;
38332;SDS011;25748;46.670;14.272;2023-03-19T08:41:22;7.53;;;3.20;;
38332;SDS011;25748;46.670;14.272;2023-03-19T08:43:48;3.67;;;2.28;;
38332;SDS011;25748;46.670;14.272;2023-03-19T08:46:14;7.97;;;2.90;;
38332;SDS011;25748;46.670;14.272;2023-03-19T08:48:40;10.27;;;3.88;;
38332;SDS011;25748;46.670;14.272;2023-03-19T08:51:06;3.78;;;2.15;;
38332;SDS011;25748;46.670;14.272;2023-03-19T08:53:32;5.80;;;3.08;;
38332;SDS011;25748;46.670;14.272;2023-03-19T08:55:59;4.45;;;2.45;;
38332;SDS011;25748;46.670;14.272;2023-03-19T08:58:26;7.50;;;3.03;;
38332;SDS011;25748;46.670;14.272;2023-03-19T09:00:53;7.05;;;2.58;;
38332;SDS011;25748;46.670;14.272;2023-03-19T09:03:26;5.20;;;2.50;;
38332;SDS011;25748;46.670;14.272;2023-03-19T09:05:51;5.95;;;2.75;;
38332;SDS011;25748;46.670;14.272;2023-03-19T09:08:17;5.38;;;2.50;;
38332;SDS011;25748;46.670;14.272;2023-03-19T09:10:43;5.22;;;2.83;;
38332;SDS011;25748;46.670;14.272;2023-03-19T09:13:08;6.30;;;2.30;;
38332;SDS011;25748;46.670;14.272;2023-03-19T09:15:34;4.72;;;2.47;;
38332;SDS011;25748;46.670;14.272;2023-03-19T09:18:00;7.78;;;1.98;;
38332;SDS011;25748;46.670;14.272;2023-03-19T09:20:25;7.22;;;2.08;;
38332;SDS011;25748;46.670;14.272;2023-03-19T09:22:51;6.38;;;3.00;;
38332;SDS011;25748;46.670;14.272;2023-03-19T09:25:17;4.30;;;2.70;;
38332;SDS011;25748;46.670;14.272;2023-03-19T09:27:42;4.47;;;2.30;;
38332;SDS011;25748;46.670;14.272;2023-03-19T09:30:08;3.67;;;2.30;;
38332;SDS011;25748;46.670;14.272;2023-03-19T09:32:35;5.90;;;2.53;;
38332;SDS011;25748;46.670;14.272;2023-03-19T09:35:01;4.72;;;2.15;;
38332;SDS011;25748;46.670;14.272;2023-03-19T09:37:27;6.05;;;2.47;;
38332;SDS011;25748;46.670;14.272;2023-03-19T09:39:52;5.63;;;2.67;;
38332;SDS011;25748;46.670;14.272;2023-03-19T09:42:23;6.15;;;2.03;;
38332;SDS011;25748;46.670;14.272;2023-03-19T09:45:01;4.20;;;2.08;;
38332;SDS011;25748;46.670;14.272;2023-03-19T09:47:33;4.90;;;2.63;;
38332;SDS011;25748;46.670;14.272;2023-03-19T09:50:01;6.82;;;2.55;;
38332;SDS011;25748;46.670;14.272;2023-03-19T09:58:09;4.30;;;2.08;;
38332;SDS011;25748;46.670;14.272;2023-03-19T10:00:40;4.63;;;2.90;;
38332;SDS011;25748;46.670;14.272;2023-03-19T10:05:41;5.28;;;2.53;;
38332;SDS011;25748;46.670;14.272;2023-03-19T10:11:14;9.02;;;2.92;;
38332;SDS011;25748;46.670;14.272;2023-03-19T10:16:48;6.18;;;2.03;;
38332;SDS011;25748;46.670;14.272;2023-03-19T10:19:18;5.28;;;2.58;;
38332;SDS011;25748;46.670;14.272;2023-03-19T10:22:01;5.20;;;2.55;;
38332;SDS011;25748;46.670;14.272;2023-03-19T10:24:35;7.63;;;2.55;;
38332;SDS011;25748;46.670;14.272;2023-03-19T10:27:11;4.75;;;2.15;;
38332;SDS011;25748;46.670;14.272;2023-03-19T10:29:39;4.22;;;2.35;;
38332;SDS011;25748;46.670;14.272;2023-03-19T10:35:26;6.60;;;2.28;;
38332;SDS011;25748;46.670;14.272;2023-03-19T10:38:25;5.88;;;2.33;;
38332;SDS011;25748;46.670;14.272;2023-03-19T10:40:55;8.40;;;2.38;;
38332;SDS011;25748;46.670;14.272;2023-03-19T10:43:29;3.58;;;1.85;;
38332;SDS011;25748;46.670;14.272;2023-03-19T10:45:56;4.95;;;2.53;;
38332;SDS011;25748;46.670;14.272;2023-03-19T10:48:24;5.10;;;2.42;;
38332;SDS011;25748;46.670;14.272;2023-03-19T10:50:52;4.88;;;2.42;;
38332;SDS011;25748;46.670;14.272;2023-03-19T10:53:30;5.03;;;2.40;;
38332;SDS011;25748;46.670;14.272;2023-03-19T10:55:59;5.95;;;2.75;;
38332;SDS011;25748;46.670;14.272;2023-03-19T10:58:39;4.65;;;2.65;;
38332;SDS011;25748;46.670;14.272;2023-03-19T11:01:09;4.55;;;2.38;;
38332;SDS011;25748;46.670;14.272;2023-03-19T11:03:37;4.82;;;2.20;;
38332;SDS011;25748;46.670;14.272;2023-03-19T11:06:18;7.00;;;1.90;;
38332;SDS011;25748;46.670;14.272;2023-03-19T11:08:49;5.20;;;2.05;;
38332;SDS011;25748;46.670;14.272;2023-03-19T11:11:33;4.75;;;2.00;;
38332;SDS011;25748;46.670;14.272;2023-03-19T11:14:07;7.35;;;2.72;;
38332;SDS011;25748;46.670;14.272;2023-03-19T11:17:25;6.05;;;2.10;;
38332;SDS011;25748;46.670;14.272;2023-03-19T11:19:42;8.18;;;3.10;;
38332;SDS011;25748;46.670;14.272;2023-03-19T11:22:27;4.50;;;1.73;;
38332;SDS011;25748;46.670;14.272;2023-03-19T11:25:00;4.05;;;1.92;;
38332;SDS011;25748;46.670;14.272;2023-03-19T11:27:32;5.20;;;2.40;;
38332;SDS011;25748;46.670;14.272;2023-03-19T11:30:00;6.55;;;2.25;;
38332;SDS011;25748;46.670;14.272;2023-03-19T11:35:41;5.53;;;2.20;;
38332;SDS011;25748;46.670;14.272;2023-03-19T11:38:21;4.53;;;2.03;;
38332;SDS011;25748;46.670;14.272;2023-03-19T11:41:01;6.53;;;2.00;;
38332;SDS011;25748;46.670;14.272;2023-03-19T11:43:52;4.85;;;2.28;;
38332;SDS011;25748;46.670;14.272;2023-03-19T11:49:05;6.13;;;1.70;;
38332;SDS011;25748;46.670;14.272;2023-03-19T11:54:43;9.18;;;2.13;;
38332;SDS011;25748;46.670;14.272;2023-03-19T12:00:22;3.38;;;1.42;;
38332;SDS011;25748;46.670;14.272;2023-03-19T12:03:20;5.40;;;1.98;;
38332;SDS011;25748;46.670;14.272;2023-03-19T12:09:00;4.65;;;1.98;;
38332;SDS011;25748;46.670;14.272;2023-03-19T12:11:47;5.53;;;1.75;;
38332;SDS011;25748;46.670;14.272;2023-03-19T12:14:21;3.58;;;1.65;;
38332;SDS011;25748;46.670;14.272;2023-03-19T12:22:57;6.00;;;2.10;;
38332;SDS011;25748;46.670;14.272;2023-03-19T12:28:17;3.78;;;1.60;;
38332;SDS011;25748;46.670;14.272;2023-03-19T12:36:30;3.42;;;1.30;;
38332;SDS011;25748;46.670;14.272;2023-03-19T12:39:02;5.03;;;1.88;;
38332;SDS011;25748;46.670;14.272;2023-03-19T12:41:35;5.10;;;1.67;;
38332;SDS011;25748;46.670;14.272;2023-03-19T13:00:27;6.57;;;1.33;;
38332;SDS011;25748;46.670;14.272;2023-03-19T13:03:20;3.25;;;1.20;;
38332;SDS011;25748;46.670;14.272;2023-03-19T13:06:04;4.63;;;1.10;;
38332;SDS011;25748;46.670;14.272;2023-03-19T13:08:44;3.20;;;1.30;;
38332;SDS011;25748;46.670;14.272;2023-03-19T13:11:52;3.80;;;1.23;;
38332;SDS011;25748;46.670;14.272;2023-03-19T13:17:15;4.70;;;1.27;;
38332;SDS011;25748;46.670;14.272;2023-03-19T13:22:55;3.22;;;1.00;;
38332;SDS011;25748;46.670;14.272;2023-03-19T13:25:33;2.97;;;0.73;;
38332;SDS011;25748;46.670;14.272;2023-03-19T13:28:05;2.90;;;1.00;;
38332;SDS011;25748;46.670;14.272;2023-03-19T13:30:35;1.90;;;0.60;;
38332;SDS011;25748;46.670;14.272;2023-03-19T13:33:12;2.75;;;0.98;;
38332;SDS011;25748;46.670;14.272;2023-03-19T13:35:42;2.50;;;0.70;;
38332;SDS011;25748;46.670;14.272;2023-03-19T13:40:43;2.65;;;0.80;;
38332;SDS011;25748;46.670;14.272;2023-03-19T13:46:25;2.08;;;0.90;;
38332;SDS011;25748;46.670;14.272;2023-03-19T13:48:55;2.22;;;0.85;;
38332;SDS011;25748;46.670;14.272;2023-03-19T13:51:33;1.25;;;0.60;;
38332;SDS011;25748;46.670;14.272;2023-03-19T14:02:14;1.63;;;0.60;;
38332;SDS011;25748;46.670;14.272;2023-03-19T14:04:54;1.27;;;0.85;;
38332;SDS011;25748;46.670;14.272;2023-03-19T14:07:38;1.85;;;0.82;;
38332;SDS011;25748;46.670;14.272;2023-03-19T14:10:06;1.50;;;0.60;;
38332;SDS011;25748;46.670;14.272;2023-03-19T14:13:04;5.57;;;0.70;;
38332;SDS011;25748;46.670;14.272;2023-03-19T14:15:33;2.45;;;1.08;;
38332;SDS011;25748;46.670;14.272;2023-03-19T14:18:02;7.15;;;0.68;;
38332;SDS011;25748;46.670;14.272;2023-03-19T14:20:43;3.55;;;0.63;;
38332;SDS011;25748;46.670;14.272;2023-03-19T14:23:21;1.52;;;0.80;;
38332;SDS011;25748;46.670;14.272;2023-03-19T14:26:05;2.38;;;0.88;;
38332;SDS011;25748;46.670;14.272;2023-03-19T14:29:05;2.50;;;0.75;;
38332;SDS011;25748;46.670;14.272;2023-03-19T14:31:57;2.03;;;0.68;;
38332;SDS011;25748;46.670;14.272;2023-03-19T14:39:33;1.05;;;0.70;;
38332;SDS011;25748;46.670;14.272;2023-03-19T14:56:24;3.33;;;1.02;;
38332;SDS011;25748;46.670;14.272;2023-03-19T14:58:55;4.05;;;1.00;;
38332;SDS011;25748;46.670;14.272;2023-03-19T15:01:22;1.65;;;0.80;;
38332;SDS011;25748;46.670;14.272;2023-03-19T15:03:52;1.92;;;1.10;;
38332;SDS011;25748;46.670;14.272;2023-03-19T15:06:19;1.42;;;0.77;;
38332;SDS011;25748;46.670;14.272;2023-03-19T15:08:45;2.33;;;0.60;;
38332;SDS011;25748;46.670;14.272;2023-03-19T15:19:10;1.48;;;0.70;;
38332;SDS011;25748;46.670;14.272;2023-03-19T15:21:37;2.67;;;0.90;;
38332;SDS011;25748;46.670;14.272;2023-03-19T15:24:04;2.67;;;0.70;;
38332;SDS011;25748;46.670;14.272;2023-03-19T15:26:34;2.03;;;0.93;;
38332;SDS011;25748;46.670;14.272;2023-03-19T15:29:01;1.30;;;0.68;;
38332;SDS011;25748;46.670;14.272;2023-03-19T15:31:40;1.48;;;0.60;;
38332;SDS011;25748;46.670;14.272;2023-03-19T15:34:21;1.43;;;0.70;;
38332;SDS011;25748;46.670;14.272;2023-03-19T15:36:52;2.13;;;0.90;;
38332;SDS011;25748;46.670;14.272;2023-03-19T15:39:27;2.47;;;0.95;;
38332;SDS011;25748;46.670;14.272;2023-03-19T15:41:57;1.55;;;0.70;;
38332;SDS011;25748;46.670;14.272;2023-03-19T15:44:43;2.58;;;1.02;;
38332;SDS011;25748;46.670;14.272;2023-03-19T15:47:30;2.85;;;1.20;;
38332;SDS011;25748;46.670;14.272;2023-03-19T15:50:01;1.33;;;0.75;;
38332;SDS011;25748;46.670;14.272;2023-03-19T15:52:32;7.97;;;0.90;;
38332;SDS011;25748;46.670;14.272;2023-03-19T15:55:01;4.38;;;0.60;;
38332;SDS011;25748;46.670;14.272;2023-03-19T15:57:28;3.20;;;0.80;;
38332;SDS011;25748;46.670;14.272;2023-03-19T15:59:55;1.38;;;0.65;;
38332;SDS011;25748;46.670;14.272;2023-03-19T16:02:30;2.75;;;0.70;;
38332;SDS011;25748;46.670;14.272;2023-03-19T16:04:57;0.95;;;0.55;;
38332;SDS011;25748;46.670;14.272;2023-03-19T16:09:59;1.70;;;0.80;;
38332;SDS011;25748;46.670;14.272;2023-03-19T16:12:47;1.10;;;0.70;;
38332;SDS011;25748;46.670;14.272;2023-03-19T16:15:22;1.67;;;0.70;;
38332;SDS011;25748;46.670;14.272;2023-03-19T16:17:52;2.65;;;0.90;;
38332;SDS011;25748;46.670;14.272;2023-03-19T16:20:18;1.65;;;0.70;;
38332;SDS011;25748;46.670;14.272;2023-03-19T16:22:51;2.25;;;0.90;;
38332;SDS011;25748;46.670;14.272;2023-03-19T16:25:27;2.75;;;0.75;;
38332;SDS011;25748;46.670;14.272;2023-03-19T16:27:56;2.92;;;0.85;;
38332;SDS011;25748;46.670;14.272;2023-03-19T16:30:23;1.25;;;0.57;;
38332;SDS011;25748;46.670;14.272;2023-03-19T16:33:01;2.85;;;0.90;;
38332;SDS011;25748;46.670;14.272;2023-03-19T16:35:28;6.85;;;1.52;;
38332;SDS011;25748;46.670;14.272;2023-03-19T16:40:38;2.20;;;0.90;;
38332;SDS011;25748;46.670;14.272;2023-03-19T16:43:06;3.22;;;1.17;;